createdAt,value
2023-02-11T00:00:10.689Z,101762.09
2023-02-11T00:05:13.679Z,101757.56
2023-02-11T00:10:16.795Z,101754.88
2023-02-11T00:15:21.259Z,101731.00
2023-02-11T00:20:24.211Z,101717.31
2023-02-11T00:25:27.031Z,101695.66
2023-02-11T00:30:31.217Z,101671.50
2023-02-11T00:35:34.003Z,101673.25
2023-02-11T00:40:36.913Z,101679.34
2023-02-11T00:45:41.183Z,101670.38
2023-02-11T00:50:44.006Z,101666.13
2023-02-11T00:55:46.776Z,101675.84
2023-02-11T01:00:51.075Z,101674.03
2023-02-11T01:05:54.276Z,101658.81
2023-02-11T01:10:58.350Z,101643.44
2023-02-11T01:16:02.889Z,101643.44
2023-02-11T01:21:06.181Z,101649.78
2023-02-11T01:26:09.038Z,101648.91
2023-02-11T01:31:13.259Z,101631.78
2023-02-11T01:36:16.085Z,101631.97
2023-02-11T01:41:18.861Z,101615.94
2023-02-11T01:46:30.944Z,101625.81
2023-02-11T01:51:38.746Z,101627.44
2023-02-11T01:57:04.629Z,101625.81
2023-02-11T02:02:13.556Z,101626.56
2023-02-11T02:07:26.349Z,101624.88
2023-02-11T02:12:29.237Z,101627.50
2023-02-11T02:17:45.700Z,101632.09
2023-02-11T02:23:14.930Z,101620.34
2023-02-11T02:28:43.909Z,101628.44
2023-02-11T02:33:56.242Z,101623.06
2023-02-11T02:39:04.172Z,101596.09
2023-02-11T02:44:09.138Z,101580.13
2023-02-11T02:49:15.177Z,101580.91
2023-02-11T02:54:35.838Z,101580.81
2023-02-11T02:59:52.599Z,101583.69
2023-02-11T03:05:04.969Z,101566.47
2023-02-11T03:10:14.418Z,101587.06
2023-02-11T03:15:20.396Z,101585.50
2023-02-11T03:20:24.918Z,101596.19
2023-02-11T03:25:33.395Z,101589.94
2023-02-11T03:30:41.532Z,101577.25
2023-02-11T03:35:51.840Z,101547.84
2023-02-11T03:40:57.494Z,101542.44
2023-02-11T03:46:03.229Z,101549.28
2023-02-11T03:51:10.540Z,101537.66
2023-02-11T03:56:18.702Z,101532.63
2023-02-11T04:01:21.772Z,101536.50
2023-02-11T04:06:25.893Z,101543.41
2023-02-11T04:11:28.743Z,101531.66
2023-02-11T04:16:31.912Z,101527.19
2023-02-11T04:21:36.100Z,101510.84
2023-02-11T04:26:38.861Z,101517.19
2023-02-11T04:31:41.665Z,101519.09
2023-02-11T04:36:45.888Z,101534.13
2023-02-11T04:41:48.836Z,101521.63
2023-02-11T04:46:51.690Z,101526.94
2023-02-11T04:51:56.163Z,101533.91
2023-02-11T04:56:58.920Z,101534.09
2023-02-11T05:02:01.669Z,101520.66
2023-02-11T05:07:05.791Z,101527.66
2023-02-11T05:12:08.765Z,101531.31
2023-02-11T05:17:11.536Z,101532.41
2023-02-11T05:22:15.669Z,101529.88
2023-02-11T05:27:18.552Z,101523.59
2023-02-11T05:32:21.355Z,101521.19
2023-02-11T05:37:25.547Z,101516.47
2023-02-11T05:42:28.480Z,101513.63
2023-02-11T05:47:31.307Z,101525.41
2023-02-11T05:52:35.578Z,101513.72
2023-02-11T05:57:38.428Z,101519.38
2023-02-11T06:02:41.347Z,101516.63
2023-02-11T06:07:45.491Z,101517.00
2023-02-11T06:12:48.511Z,101511.56
2023-02-11T06:17:52.121Z,101500.47
2023-02-11T06:22:56.370Z,101499.50
2023-02-11T06:27:59.181Z,101495.22
2023-02-11T06:33:01.962Z,101495.75
2023-02-11T06:38:06.085Z,101491.19
2023-02-11T06:43:08.872Z,101484.03
2023-02-11T06:48:11.630Z,101496.41
2023-02-11T06:53:15.777Z,101505.34
2023-02-11T06:58:18.570Z,101508.84
2023-02-11T07:03:21.438Z,101520.66
2023-02-11T07:08:25.564Z,101517.00
2023-02-11T07:13:28.424Z,101510.03
2023-02-11T07:18:31.266Z,101502.81
2023-02-11T07:23:36.142Z,101500.06
2023-02-11T07:28:40.063Z,101508.91
2023-02-11T07:33:43.255Z,101501.88
2023-02-11T07:38:47.528Z,101512.47
2023-02-11T07:43:50.826Z,101516.94
2023-02-11T07:48:54.933Z,101508.22
2023-02-11T07:54:00.585Z,101507.19
2023-02-11T07:59:05.266Z,101518.81
2023-02-11T08:04:08.054Z,101510.16
2023-02-11T08:09:16.199Z,101500.59
2023-02-11T08:14:20.392Z,101501.16
2023-02-11T08:19:23.175Z,101483.91
2023-02-11T08:24:27.304Z,101497.25
2023-02-11T08:29:30.491Z,101512.22
2023-02-11T08:34:33.927Z,101489.84
2023-02-11T08:39:38.482Z,101495.09
2023-02-11T08:44:41.384Z,101515.72
2023-02-11T08:49:44.181Z,101507.28
2023-02-11T08:54:48.322Z,101502.13
2023-02-11T08:59:51.075Z,101494.59
2023-02-11T09:04:53.915Z,101502.94
2023-02-11T09:09:58.019Z,101512.22
2023-02-11T09:15:00.998Z,101503.59
2023-02-11T09:20:04.089Z,101524.63
2023-02-11T09:25:08.848Z,101550.44
2023-02-11T09:30:12.724Z,101551.94
2023-02-11T09:35:15.541Z,101534.41
2023-02-11T09:40:21.234Z,101545.94
2023-02-11T09:45:26.414Z,101555.44
2023-02-11T09:50:33.494Z,101548.84
2023-02-11T09:55:42.808Z,101542.91
2023-02-11T10:00:49.830Z,101552.94
2023-02-11T10:06:10.685Z,101528.50
2023-02-11T10:11:31.166Z,101517.50
2023-02-11T10:16:51.216Z,101521.88
2023-02-11T10:22:03.248Z,101526.06
2023-02-11T10:27:17.581Z,101527.63
2023-02-11T10:32:30.716Z,101519.00
2023-02-11T10:37:33.451Z,101495.91
2023-02-11T10:42:37.864Z,101508.81
2023-02-11T10:47:42.283Z,101535.03
2023-02-11T10:52:45.028Z,101528.81
2023-02-11T10:57:56.581Z,101526.75
2023-02-11T11:03:02.066Z,101514.03
2023-02-11T11:08:08.744Z,101532.69
2023-02-11T11:13:31.469Z,101515.06
2023-02-11T11:18:34.231Z,101513.78
2023-02-11T11:23:38.877Z,101511.66
2023-02-11T11:29:00.009Z,101497.88
2023-02-11T11:34:07.224Z,101494.94
2023-02-11T11:39:24.186Z,101498.03
2023-02-11T11:44:33.460Z,101513.44
2023-02-11T11:49:40.681Z,101528.88
2023-02-11T11:54:47.654Z,101520.44
2023-02-11T11:59:51.970Z,101522.16
2023-02-11T12:05:03.060Z,101527.09
2023-02-11T12:10:29.151Z,101517.53
2023-02-11T12:15:37.562Z,101508.19
2023-02-11T12:21:00.968Z,101533.53
2023-02-11T12:26:14.364Z,101533.41
2023-02-11T12:31:33.571Z,101525.44
2023-02-11T12:36:54.427Z,101524.84
2023-02-11T12:42:37.365Z,101518.50
2023-02-11T12:47:54.622Z,101502.41
2023-02-11T12:53:11.544Z,101495.88
2023-02-11T12:58:19.931Z,101514.63
2023-02-11T13:03:31.927Z,101503.72
2023-02-11T13:08:39.351Z,101503.81
2023-02-11T13:13:53.679Z,101489.06
2023-02-11T13:19:05.017Z,101492.53
2023-02-11T13:24:20.761Z,101492.72
2023-02-11T13:29:32.873Z,101502.09
2023-02-11T13:35:01.568Z,101508.16
2023-02-11T13:40:07.737Z,101507.78
2023-02-11T13:45:19.681Z,101511.91
2023-02-11T13:50:26.458Z,101516.38
2023-02-11T13:55:30.405Z,101511.63
2023-02-11T14:00:49.716Z,101504.97
2023-02-11T14:06:33.520Z,101511.13
2023-02-11T14:11:51.937Z,101516.53
2023-02-11T14:17:21.214Z,101514.41
2023-02-11T14:22:29.529Z,101509.03
2023-02-11T14:27:38.609Z,101500.59
2023-02-11T14:32:54.119Z,101504.81
2023-02-11T14:38:07.756Z,101509.91
2023-02-11T14:43:16.311Z,101503.28
2023-02-11T14:48:21.897Z,101505.81
2023-02-11T14:53:29.398Z,101504.69
2023-02-11T14:58:34.329Z,101494.84
2023-02-11T15:03:38.847Z,101508.09
2023-02-11T15:08:48.318Z,101508.34
2023-02-11T15:13:55.078Z,101504.50
2023-02-11T15:19:05.610Z,101528.03
2023-02-11T15:24:25.449Z,101530.75
2023-02-11T15:29:29.980Z,101539.97
2023-02-11T15:34:32.886Z,101550.16
2023-02-11T15:39:41.001Z,101546.34
2023-02-11T15:44:44.143Z,101553.63
2023-02-11T15:49:48.788Z,101552.50
2023-02-11T15:54:54.889Z,101551.50
2023-02-11T15:59:59.138Z,101542.06
2023-02-11T16:05:05.576Z,101536.41
2023-02-11T16:10:20.488Z,101544.25
2023-02-11T16:15:32.482Z,101550.00
2023-02-11T16:20:35.331Z,101558.63
2023-02-11T16:25:43.414Z,101560.69
2023-02-11T16:30:46.284Z,101570.66
2023-02-11T16:35:49.255Z,101582.06
2023-02-11T16:40:53.623Z,101585.19
2023-02-11T16:45:56.581Z,101600.25
2023-02-11T16:50:59.796Z,101603.22
2023-02-11T16:56:04.290Z,101605.50
2023-02-11T17:01:08.091Z,101607.69
2023-02-11T17:06:11.874Z,101613.03
2023-02-11T17:11:16.719Z,101617.81
2023-02-11T17:16:22.421Z,101619.28
2023-02-11T17:21:28.870Z,101620.69
2023-02-11T17:26:35.337Z,101617.53
2023-02-11T17:31:39.458Z,101622.16
2023-02-11T17:36:42.564Z,101633.31
2023-02-11T17:41:46.797Z,101638.00
2023-02-11T17:46:49.619Z,101629.59
2023-02-11T17:51:52.581Z,101627.38
2023-02-11T17:56:58.450Z,101641.84
2023-02-11T18:02:01.480Z,101649.84
2023-02-11T18:07:04.335Z,101645.50
2023-02-11T18:12:10.627Z,101654.09
2023-02-11T18:17:13.449Z,101652.09
2023-02-11T18:22:16.960Z,101670.34
2023-02-11T18:27:21.327Z,101669.63
2023-02-11T18:32:24.151Z,101669.53
2023-02-11T18:37:27.067Z,101669.06
2023-02-11T18:42:32.925Z,101687.09
2023-02-11T18:47:37.783Z,101686.47
2023-02-11T18:52:40.789Z,101694.56
2023-02-11T18:57:44.900Z,101704.88
2023-02-11T19:02:47.728Z,101697.78
2023-02-11T19:07:50.714Z,101701.06
2023-02-11T19:12:56.376Z,101709.31
2023-02-11T19:17:59.215Z,101699.38
2023-02-11T19:23:02.114Z,101708.94
2023-02-11T19:28:06.617Z,101717.47
2023-02-11T19:33:10.343Z,101723.28
2023-02-11T19:38:13.962Z,101746.25
2023-02-11T19:43:18.208Z,101757.63
2023-02-11T19:48:21.092Z,101759.59
2023-02-11T19:53:24.221Z,101754.69
2023-02-11T19:58:28.384Z,101768.16
2023-02-11T20:03:31.178Z,101766.72
2023-02-11T20:08:34.466Z,101770.84
2023-02-11T20:13:39.348Z,101777.19
2023-02-11T20:18:42.360Z,101786.97
2023-02-11T20:23:46.661Z,101782.66
2023-02-11T20:28:52.600Z,101787.28
2023-02-11T20:33:56.391Z,101787.59
2023-02-11T20:39:00.297Z,101787.34
2023-02-11T20:44:06.337Z,101778.53
2023-02-11T20:49:11.125Z,101783.53
2023-02-11T20:54:17.318Z,101784.81
2023-02-11T20:59:21.990Z,101784.63
2023-02-11T21:04:27.243Z,101793.88
2023-02-11T21:09:32.561Z,101811.94
2023-02-11T21:14:36.776Z,101826.41
2023-02-11T21:19:39.908Z,101828.72
2023-02-11T21:24:42.753Z,101833.31
2023-02-11T21:29:54.265Z,101836.19
2023-02-11T21:34:57.615Z,101852.75
2023-02-11T21:40:00.568Z,101868.63
2023-02-11T21:45:05.349Z,101861.47
2023-02-11T21:50:09.010Z,101866.75
2023-02-11T21:55:12.108Z,101870.66
2023-02-11T22:00:18.103Z,101874.75
2023-02-11T22:05:21.315Z,101862.63
2023-02-11T22:10:24.469Z,101876.41
2023-02-11T22:15:28.855Z,101875.19
2023-02-11T22:20:31.729Z,101883.59
2023-02-11T22:25:34.455Z,101886.50
2023-02-11T22:30:38.729Z,101895.41
2023-02-11T22:35:41.485Z,101887.06
2023-02-11T22:40:44.620Z,101898.97
2023-02-11T22:45:48.949Z,101904.75
2023-02-11T22:50:51.838Z,101908.25
2023-02-11T22:55:54.957Z,101912.75
2023-02-11T23:00:59.615Z,101925.00
2023-02-11T23:06:02.861Z,101930.47
2023-02-11T23:11:07.906Z,101932.31
2023-02-11T23:16:14.061Z,101938.66
2023-02-11T23:21:19.157Z,101937.88
2023-02-11T23:26:21.960Z,101938.50
2023-02-11T23:31:29.129Z,101943.50
2023-02-11T23:36:33.893Z,101938.81
2023-02-11T23:41:36.907Z,101942.63
2023-02-11T23:46:41.085Z,101942.97
2023-02-11T23:51:44.245Z,101940.50
2023-02-11T23:56:47.101Z,101952.59
